Time;durP1;ratioP1;P1;durP2;ratioP2;P2;SDS_P1;SDS_P2;PMS_P1;PMS_P2;Temp;Humidity;BMP_temperature;BMP_pressure;BME280_temperature;BME280_humidity;BME280_pressure;Samples;Min_cycle;Max_cycle;Signal;HPM_P1;HPM_P2
2022/05/03 00:00:00;;;;;;;4.68;3.35;;;;;;;;;;5001100;28;20026;-68
2022/05/03 00:02:35;;;;;;;5.05;3.40;;;;;;;;;;5001821;28;20437;-68
2022/05/03 00:05:13;;;;;;;6.05;3.80;;;;;;;;;;5000722;28;20458;-68
2022/05/03 00:07:43;;;;;;;4.07;3.38;;;;;;;;;;5002855;28;20308;-68
2022/05/03 00:10:12;;;;;;;6.30;3.38;;;;;;;;;;5008369;28;20029;-68
2022/05/03 00:12:42;;;;;;;3.70;3.05;;;;;;;;;;5001571;28;20551;-68
2022/05/03 00:15:08;;;;;;;4.72;3.45;;;;;;;;;;4995477;28;20532;-68
2022/05/03 00:17:33;;;;;;;5.93;3.67;;;;;;;;;;4997144;28;20085;-68
2022/05/03 00:19:59;;;;;;;4.68;3.10;;;;;;;;;;4998957;28;20065;-68
2022/05/03 00:22:24;;;;;;;6.45;3.75;;;;;;;;;;4999381;28;20022;-68
2022/05/03 00:24:54;;;;;;;3.55;3.10;;;;;;;;;;4999697;28;20038;-69
2022/05/03 00:27:20;;;;;;;6.03;3.45;;;;;;;;;;5001776;28;20033;-68
2022/05/03 00:29:45;;;;;;;4.22;3.10;;;;;;;;;;5002187;28;20030;-68
2022/05/03 00:32:10;;;;;;;4.80;2.97;;;;;;;;;;5002283;28;20026;-68
2022/05/03 00:34:36;;;;;;;3.60;3.22;;;;;;;;;;5006734;28;20271;-68
2022/05/03 00:37:01;;;;;;;3.97;3.30;;;;;;;;;;5001514;28;20026;-68
2022/05/03 00:39:26;;;;;;;4.55;3.20;;;;;;;;;;5012412;28;20100;-68
2022/05/03 00:41:52;;;;;;;4.53;3.05;;;;;;;;;;5001474;28;20026;-68
2022/05/03 00:47:12;;;;;;;;;;;;;;;;;;5003688;28;20270;-68
2022/05/03 00:49:42;;;;;;;9.40;3.38;;;;;;;;;;5000829;28;19913;-68
2022/05/03 00:52:16;;;;;;;3.95;2.90;;;;;;;;;;5003848;28;20604;-68
2022/05/03 00:54:47;;;;;;;5.07;2.67;;;;;;;;;;4985097;28;20030;-68
2022/05/03 00:57:12;;;;;;;3.35;3.05;;;;;;;;;;5000246;28;20176;-68
2022/05/03 00:59:56;;;;;;;3.83;2.95;;;;;;;;;;5002832;28;20104;-67
2022/05/03 01:02:29;;;;;;;5.22;3.10;;;;;;;;;;5007414;28;20030;-68
2022/05/03 01:05:09;;;;;;;5.50;3.15;;;;;;;;;;5004568;28;20072;-67
2022/05/03 01:07:35;;;;;;;4.47;2.83;;;;;;;;;;4996204;28;20354;-68
2022/05/03 01:10:20;;;;;;;3.95;3.15;;;;;;;;;;5003507;28;20072;-68
2022/05/03 01:12:48;;;;;;;3.92;2.95;;;;;;;;;;5007988;28;20017;-68
2022/05/03 01:15:14;;;;;;;5.18;3.10;;;;;;;;;;5006497;28;20018;-68
2022/05/03 01:17:43;;;;;;;7.57;3.25;;;;;;;;;;5000819;28;20038;-68
2022/05/03 01:20:09;;;;;;;5.70;3.47;;;;;;;;;;5004786;28;20388;-68
2022/05/03 01:22:54;;;;;;;4.90;3.20;;;;;;;;;;5008437;28;20036;-68
2022/05/03 01:25:28;;;;;;;4.70;3.13;;;;;;;;;;5000996;28;20037;-68
2022/05/03 01:27:59;;;;;;;6.75;3.25;;;;;;;;;;5001213;28;20399;-68
2022/05/03 01:30:27;;;;;;;4.60;3.53;;;;;;;;;;4997889;28;20083;-68
2022/05/03 01:32:54;;;;;;;4.22;3.03;;;;;;;;;;5004447;28;20026;-67
2022/05/03 01:35:21;;;;;;;6.88;3.60;;;;;;;;;;5005124;28;20172;-68
2022/05/03 01:37:53;;;;;;;8.65;3.53;;;;;;;;;;4997240;28;20192;-67
2022/05/03 01:40:23;;;;;;;6.55;3.88;;;;;;;;;;4998765;28;20077;-67
2022/05/03 01:43:01;;;;;;;5.03;3.45;;;;;;;;;;5000957;28;20710;-67
2022/05/03 01:45:29;;;;;;;3.67;3.22;;;;;;;;;;4992130;28;20025;-67
2022/05/03 01:48:12;;;;;;;4.30;3.10;;;;;;;;;;4997912;28;20072;-67
2022/05/03 01:50:42;;;;;;;5.28;3.40;;;;;;;;;;4999894;28;20077;-67
2022/05/03 01:53:14;;;;;;;6.20;3.72;;;;;;;;;;4997616;28;20030;-67
2022/05/03 01:55:58;;;;;;;8.90;3.65;;;;;;;;;;4995610;28;20022;-67
2022/05/03 01:58:32;;;;;;;4.57;3.85;;;;;;;;;;4991933;28;20644;-67
2022/05/03 02:01:05;;;;;;;7.07;3.63;;;;;;;;;;4998398;28;20041;-67
2022/05/03 02:03:39;;;;;;;4.85;3.38;;;;;;;;;;4995453;28;20026;-67
2022/05/03 02:06:08;;;;;;;6.97;3.63;;;;;;;;;;5000997;28;20030;-67
2022/05/03 02:08:57;;;;;;;6.93;3.80;;;;;;;;;;4998561;28;20033;-67
2022/05/03 02:11:38;;;;;;;4.88;3.00;;;;;;;;;;5013751;28;20018;-68
2022/05/03 02:17:10;;;;;;;11.82;3.88;;;;;;;;;;4997112;28;22551;-68
2022/05/03 02:19:35;;;;;;;4.70;3.78;;;;;;;;;;5003160;28;20057;-68
2022/05/03 02:22:09;;;;;;;4.38;3.97;;;;;;;;;;5001040;28;20477;-68
2022/05/03 02:24:53;;;;;;;5.40;3.70;;;;;;;;;;4999095;28;20280;-68
2022/05/03 02:27:19;;;;;;;10.32;3.90;;;;;;;;;;4999875;28;20029;-68
2022/05/03 02:29:45;;;;;;;8.82;4.32;;;;;;;;;;5000495;28;20025;-68
2022/05/03 02:32:12;;;;;;;4.95;3.80;;;;;;;;;;5007313;28;20099;-68
2022/05/03 02:34:46;;;;;;;8.35;3.90;;;;;;;;;;5001268;28;20548;-67
2022/05/03 02:37:17;;;;;;;5.88;3.92;;;;;;;;;;5000185;28;20057;-68
2022/05/03 02:40:03;;;;;;;5.97;3.72;;;;;;;;;;5000601;28;20105;-68
2022/05/03 02:42:28;;;;;;;6.53;3.88;;;;;;;;;;4999725;28;20021;-68
2022/05/03 02:44:57;;;;;;;6.60;3.70;;;;;;;;;;5000021;28;20053;-68
2022/05/03 02:47:25;;;;;;;5.45;4.05;;;;;;;;;;4996857;28;20038;-68
2022/05/03 02:50:01;;;;;;;5.90;3.85;;;;;;;;;;5002695;28;20330;-68
2022/05/03 02:52:29;;;;;;;6.47;4.18;;;;;;;;;;5004653;28;20120;-68
2022/05/03 02:55:06;;;;;;;7.65;4.53;;;;;;;;;;5001451;28;20017;-68
2022/05/03 02:57:53;;;;;;;8.63;4.80;;;;;;;;;;4999035;28;20050;-68
2022/05/03 03:03:03;;;;;;;9.25;4.70;;;;;;;;;;5006506;28;20504;-68
2022/05/03 03:05:29;;;;;;;4.93;4.22;;;;;;;;;;4998905;28;20022;-68
2022/05/03 03:08:00;;;;;;;13.02;5.13;;;;;;;;;;4999484;28;20095;-68
2022/05/03 03:10:44;;;;;;;8.63;4.53;;;;;;;;;;4988453;28;20251;-68
2022/05/03 03:13:14;;;;;;;5.78;4.05;;;;;;;;;;4997279;28;20360;-68
2022/05/03 03:15:40;;;;;;;6.85;4.68;;;;;;;;;;4999036;28;20037;-68
2022/05/03 03:18:09;;;;;;;7.80;5.32;;;;;;;;;;4999665;28;20021;-68
2022/05/03 03:20:36;;;;;;;6.07;3.83;;;;;;;;;;5002449;28;20029;-68
2022/05/03 03:23:02;;;;;;;5.45;4.20;;;;;;;;;;4996301;28;20030;-68
2022/05/03 03:25:28;;;;;;;6.95;4.75;;;;;;;;;;4995431;28;20018;-68
2022/05/03 03:27:53;;;;;;;7.15;4.60;;;;;;;;;;5000044;28;20033;-68
2022/05/03 03:30:20;;;;;;;6.40;4.53;;;;;;;;;;5001530;28;20217;-68
2022/05/03 03:32:46;;;;;;;8.88;5.15;;;;;;;;;;4998098;28;20072;-68
2022/05/03 03:35:13;;;;;;;9.27;4.63;;;;;;;;;;4998176;28;20025;-68
2022/05/03 03:37:41;;;;;;;8.23;5.00;;;;;;;;;;4997926;28;20045;-68
2022/05/03 03:40:07;;;;;;;6.00;4.20;;;;;;;;;;5002910;28;20029;-68
2022/05/03 03:42:33;;;;;;;10.93;5.03;;;;;;;;;;5001303;28;20018;-68
2022/05/03 03:44:59;;;;;;;7.40;4.73;;;;;;;;;;5005931;28;20026;-68
2022/05/03 03:47:25;;;;;;;10.02;5.47;;;;;;;;;;5006903;28;20631;-68
2022/05/03 03:49:50;;;;;;;6.68;4.88;;;;;;;;;;4996394;28;20116;-68
2022/05/03 03:52:16;;;;;;;12.52;4.85;;;;;;;;;;5003948;28;20040;-68
2022/05/03 03:54:41;;;;;;;9.45;5.55;;;;;;;;;;5003483;28;20025;-68
2022/05/03 03:57:07;;;;;;;9.95;5.18;;;;;;;;;;4998675;28;20022;-68
2022/05/03 03:59:33;;;;;;;11.63;5.40;;;;;;;;;;5001178;28;20053;-68
2022/05/03 04:01:58;;;;;;;8.68;4.78;;;;;;;;;;5005203;28;20029;-68
2022/05/03 04:04:26;;;;;;;7.32;4.38;;;;;;;;;;5001648;28;20044;-68
2022/05/03 04:06:51;;;;;;;9.02;6.10;;;;;;;;;;5013591;28;20092;-68
2022/05/03 04:09:16;;;;;;;8.97;5.30;;;;;;;;;;5004862;28;20034;-68
2022/05/03 04:11:45;;;;;;;8.65;5.50;;;;;;;;;;4985142;28;20285;-68
2022/05/03 04:14:11;;;;;;;11.02;5.53;;;;;;;;;;4998400;28;20267;-68
2022/05/03 04:16:36;;;;;;;10.50;6.10;;;;;;;;;;4993713;28;20454;-68
2022/05/03 04:19:01;;;;;;;7.97;5.22;;;;;;;;;;4999660;28;20468;-68
2022/05/03 04:21:27;;;;;;;6.97;4.70;;;;;;;;;;4995523;28;20038;-68
2022/05/03 04:23:52;;;;;;;9.97;6.33;;;;;;;;;;4997403;28;20625;-67
2022/05/03 04:26:17;;;;;;;7.70;5.22;;;;;;;;;;5002413;28;20282;-69
2022/05/03 04:28:42;;;;;;;9.25;5.80;;;;;;;;;;4996153;28;20327;-68
2022/05/03 04:31:07;;;;;;;10.23;5.88;;;;;;;;;;5002613;28;20025;-68
2022/05/03 04:33:33;;;;;;;9.10;5.85;;;;;;;;;;4995778;28;20132;-68
2022/05/03 04:35:58;;;;;;;10.95;6.20;;;;;;;;;;4995423;28;20049;-72
2022/05/03 04:38:23;;;;;;;12.68;5.90;;;;;;;;;;4999067;28;20284;-69
2022/05/03 04:40:48;;;;;;;12.85;7.22;;;;;;;;;;5002260;28;20034;-69
2022/05/03 04:43:14;;;;;;;8.18;5.45;;;;;;;;;;5005650;28;20366;-67
2022/05/03 04:45:39;;;;;;;9.73;6.30;;;;;;;;;;5001087;28;20156;-69
2022/05/03 04:48:04;;;;;;;9.80;5.63;;;;;;;;;;5001117;28;20287;-68
2022/05/03 04:50:29;;;;;;;11.00;6.22;;;;;;;;;;4999741;28;20030;-68
2022/05/03 04:52:56;;;;;;;9.87;5.47;;;;;;;;;;5008300;28;20096;-69
2022/05/03 04:55:21;;;;;;;11.15;5.95;;;;;;;;;;5008427;28;20275;-67
2022/05/03 04:57:46;;;;;;;12.07;6.13;;;;;;;;;;5004177;28;20032;-72
2022/05/03 05:00:11;;;;;;;11.98;6.28;;;;;;;;;;4997622;28;20260;-69
2022/05/03 05:02:37;;;;;;;8.45;5.82;;;;;;;;;;5002704;28;20041;-68
2022/05/03 05:05:03;;;;;;;15.65;6.07;;;;;;;;;;5005832;28;20057;-68
2022/05/03 05:07:29;;;;;;;9.18;5.85;;;;;;;;;;5007729;28;20044;-68
2022/05/03 05:12:38;;;;;;;9.25;5.75;;;;;;;;;;5007458;28;20279;-68
2022/05/03 05:15:03;;;;;;;11.07;6.30;;;;;;;;;;5002104;28;20030;-68
2022/05/03 05:17:28;;;;;;;13.90;6.63;;;;;;;;;;5012774;28;20018;-68
2022/05/03 05:19:53;;;;;;;11.65;7.45;;;;;;;;;;5019303;28;20080;-68
2022/05/03 05:22:18;;;;;;;12.18;6.75;;;;;;;;;;5003830;28;20392;-68
2022/05/03 05:24:44;;;;;;;13.23;7.18;;;;;;;;;;5002768;28;20268;-68
2022/05/03 05:27:09;;;;;;;15.07;6.97;;;;;;;;;;5003337;28;20333;-68
2022/05/03 05:29:34;;;;;;;14.15;7.40;;;;;;;;;;5007191;28;20076;-68
2022/05/03 05:31:59;;;;;;;10.90;7.68;;;;;;;;;;5013950;28;20670;-68
2022/05/03 05:34:24;;;;;;;11.73;6.73;;;;;;;;;;5012143;28;20551;-68
2022/05/03 05:36:49;;;;;;;11.77;7.60;;;;;;;;;;4989925;28;20287;-68
2022/05/03 05:39:14;;;;;;;15.55;8.20;;;;;;;;;;4987572;28;20267;-68
2022/05/03 05:41:40;;;;;;;14.43;7.85;;;;;;;;;;5010003;28;20290;-68
2022/05/03 05:44:05;;;;;;;16.67;7.93;;;;;;;;;;5019527;28;20250;-68
2022/05/03 05:46:30;;;;;;;11.30;7.03;;;;;;;;;;5000870;28;20482;-68
2022/05/03 05:48:55;;;;;;;13.05;7.68;;;;;;;;;;5013541;28;20286;-68
2022/05/03 05:51:20;;;;;;;21.10;8.15;;;;;;;;;;5008942;28;20476;-68
2022/05/03 05:53:46;;;;;;;18.48;7.85;;;;;;;;;;5009688;28;20101;-68
2022/05/03 05:56:11;;;;;;;13.57;7.53;;;;;;;;;;5009785;28;20037;-68
2022/05/03 05:58:37;;;;;;;16.00;6.50;;;;;;;;;;4997946;28;20373;-68
2022/05/03 06:01:03;;;;;;;13.02;7.47;;;;;;;;;;5000507;28;20088;-68
2022/05/03 06:03:28;;;;;;;13.43;6.78;;;;;;;;;;5003074;28;20415;-68
2022/05/03 06:05:54;;;;;;;12.50;6.90;;;;;;;;;;5000173;28;20026;-68
2022/05/03 06:08:20;;;;;;;13.85;7.20;;;;;;;;;;5004248;28;20528;-68
2022/05/03 06:10:45;;;;;;;15.55;7.07;;;;;;;;;;5001046;28;20108;-68
2022/05/03 06:13:11;;;;;;;15.18;7.63;;;;;;;;;;5008067;28;20018;-69
2022/05/03 06:15:36;;;;;;;13.30;7.18;;;;;;;;;;5005004;28;20101;-68
2022/05/03 06:18:01;;;;;;;13.35;7.32;;;;;;;;;;5004942;28;20034;-68
2022/05/03 06:20:26;;;;;;;12.60;7.28;;;;;;;;;;4999337;28;20051;-68
2022/05/03 06:22:52;;;;;;;17.42;7.32;;;;;;;;;;5009520;28;20357;-68
2022/05/03 06:25:17;;;;;;;16.05;6.90;;;;;;;;;;5002410;28;20034;-68
2022/05/03 06:27:42;;;;;;;11.43;6.73;;;;;;;;;;5009460;28;20816;-68
2022/05/03 06:30:08;;;;;;;11.15;5.82;;;;;;;;;;5000711;28;20275;-68
2022/05/03 06:32:34;;;;;;;8.80;4.90;;;;;;;;;;5003614;28;20101;-69
2022/05/03 06:34:59;;;;;;;11.20;6.10;;;;;;;;;;5003526;28;20028;-68
2022/05/03 06:37:24;;;;;;;11.38;5.95;;;;;;;;;;4999260;28;20101;-68
2022/05/03 06:39:49;;;;;;;14.10;5.80;;;;;;;;;;5005998;28;20196;-68
2022/05/03 06:42:16;;;;;;;9.93;5.93;;;;;;;;;;5003487;28;20516;-68
2022/05/03 06:44:41;;;;;;;12.15;6.00;;;;;;;;;;4997550;28;20022;-69
2022/05/03 06:47:07;;;;;;;9.88;5.22;;;;;;;;;;5008407;28;20068;-69
2022/05/03 06:49:32;;;;;;;13.23;6.10;;;;;;;;;;5007777;28;20041;-68
2022/05/03 06:51:57;;;;;;;11.77;5.63;;;;;;;;;;5005662;28;20026;-69
2022/05/03 06:54:22;;;;;;;11.45;5.10;;;;;;;;;;5004573;28;20060;-69
2022/05/03 06:56:47;;;;;;;8.07;4.57;;;;;;;;;;5005461;28;20376;-69
2022/05/03 06:59:12;;;;;;;8.10;4.78;;;;;;;;;;5011050;28;20684;-69
2022/05/03 07:01:37;;;;;;;9.75;4.32;;;;;;;;;;5008306;28;20037;-69
2022/05/03 07:04:03;;;;;;;10.98;4.43;;;;;;;;;;5016301;28;20125;-69
2022/05/03 07:06:28;;;;;;;7.32;3.78;;;;;;;;;;5002755;28;20480;-69
2022/05/03 07:08:53;;;;;;;6.43;3.53;;;;;;;;;;5010854;28;20033;-68
2022/05/03 07:11:18;;;;;;;5.97;3.80;;;;;;;;;;5003492;28;20313;-68
2022/05/03 07:13:43;;;;;;;7.38;3.95;;;;;;;;;;5006345;28;20120;-68
2022/05/03 07:16:09;;;;;;;9.70;3.40;;;;;;;;;;5002191;28;20136;-68
2022/05/03 07:24:02;;;;;;;5.35;2.90;;;;;;;;;;5007837;28;20400;-68
2022/05/03 07:26:27;;;;;;;3.08;2.40;;;;;;;;;;5004350;28;20468;-69
2022/05/03 07:28:53;;;;;;;5.70;3.43;;;;;;;;;;5002315;28;20092;-68
2022/05/03 07:31:18;;;;;;;4.43;2.83;;;;;;;;;;5010914;28;20282;-69
2022/05/03 07:33:44;;;;;;;4.13;2.75;;;;;;;;;;5008146;28;20255;-69
2022/05/03 07:36:10;;;;;;;6.22;2.70;;;;;;;;;;5004817;28;20026;-68
2022/05/03 07:38:35;;;;;;;4.47;3.22;;;;;;;;;;5006345;28;20113;-69
2022/05/03 07:41:00;;;;;;;7.72;4.28;;;;;;;;;;5005641;28;20069;-68
2022/05/03 07:43:26;;;;;;;4.82;3.08;;;;;;;;;;5003018;28;20397;-69
2022/05/03 07:45:51;;;;;;;7.15;3.97;;;;;;;;;;5004805;28;20036;-68
2022/05/03 07:48:16;;;;;;;4.10;2.83;;;;;;;;;;5017660;28;20036;-68
2022/05/03 07:50:43;;;;;;;7.85;3.88;;;;;;;;;;5015803;28;20447;-69
2022/05/03 07:53:08;;;;;;;4.05;3.30;;;;;;;;;;5009640;28;20021;-69
2022/05/03 07:55:33;;;;;;;4.25;3.17;;;;;;;;;;5003669;28;20064;-69
2022/05/03 07:57:58;;;;;;;4.53;2.87;;;;;;;;;;5009242;28;20353;-69
2022/05/03 08:00:23;;;;;;;4.47;3.10;;;;;;;;;;5008814;28;20038;-69
2022/05/03 08:02:49;;;;;;;4.47;3.40;;;;;;;;;;5012282;28;20499;-69
2022/05/03 08:05:14;;;;;;;15.60;4.30;;;;;;;;;;5009928;28;20100;-69
2022/05/03 08:07:39;;;;;;;6.40;3.45;;;;;;;;;;5010417;28;20452;-69
2022/05/03 08:10:04;;;;;;;9.77;4.17;;;;;;;;;;5008622;28;20365;-69
2022/05/03 08:12:30;;;;;;;6.70;4.45;;;;;;;;;;4996991;28;20816;-69
2022/05/03 08:14:56;;;;;;;11.18;4.43;;;;;;;;;;4990725;28;20014;-69
2022/05/03 08:17:24;;;;;;;7.22;3.88;;;;;;;;;;5002015;28;20018;-69
2022/05/03 08:19:49;;;;;;;7.03;3.97;;;;;;;;;;5011335;28;20100;-69
2022/05/03 08:22:14;;;;;;;5.22;3.63;;;;;;;;;;5005697;28;20556;-69
2022/05/03 08:24:39;;;;;;;21.95;5.53;;;;;;;;;;5003525;28;20032;-69
2022/05/03 08:27:04;;;;;;;5.10;3.93;;;;;;;;;;5010261;28;20030;-69
2022/05/03 08:29:31;;;;;;;6.05;3.92;;;;;;;;;;4985605;28;20686;-69
2022/05/03 08:31:57;;;;;;;30.05;6.45;;;;;;;;;;5015855;28;20097;-69
2022/05/03 08:34:22;;;;;;;8.48;4.18;;;;;;;;;;5004353;28;20018;-69
2022/05/03 08:42:01;;;;;;;12.33;4.70;;;;;;;;;;5005403;28;20254;-68
2022/05/03 08:42:16;;;;;;;23.77;5.75;;;;;;;;;;5006295;28;20033;-69
2022/05/03 08:44:42;;;;;;;8.45;4.40;;;;;;;;;;5014078;28;20030;-69
2022/05/03 08:47:07;;;;;;;11.93;5.32;;;;;;;;;;5008728;28;20049;-68
2022/05/03 08:49:54;;;;;;;8.77;5.47;;;;;;;;;;5000445;28;20045;-68
2022/05/03 08:52:20;;;;;;;8.50;5.28;;;;;;;;;;5004207;28;20465;-68
2022/05/03 08:54:46;;;;;;;9.50;5.55;;;;;;;;;;5006427;28;20045;-69
2022/05/03 08:57:11;;;;;;;9.52;5.40;;;;;;;;;;4989812;28;20096;-69
2022/05/03 08:59:37;;;;;;;11.63;6.43;;;;;;;;;;5002568;28;20029;-69
2022/05/03 09:02:03;;;;;;;11.52;6.03;;;;;;;;;;5008036;28;20795;-69
2022/05/03 09:04:28;;;;;;;12.18;6.43;;;;;;;;;;5012705;28;20273;-69
2022/05/03 09:06:53;;;;;;;9.23;6.53;;;;;;;;;;5009413;28;20033;-69
2022/05/03 09:09:19;;;;;;;12.33;6.07;;;;;;;;;;5008070;28;20484;-69
2022/05/03 09:11:46;;;;;;;11.15;6.40;;;;;;;;;;5007179;28;20494;-69
2022/05/03 09:14:11;;;;;;;9.77;6.65;;;;;;;;;;5003493;28;20116;-69
2022/05/03 09:16:46;;;;;;;10.50;5.55;;;;;;;;;;5004704;28;20072;-69
2022/05/03 09:19:21;;;;;;;7.50;5.45;;;;;;;;;;5006953;28;20041;-69
2022/05/03 09:24:49;;;;;;;11.40;5.90;;;;;;;;;;4999787;28;20110;-69
2022/05/03 09:27:17;;;;;;;9.85;6.00;;;;;;;;;;5010386;28;20030;-69
2022/05/03 09:29:57;;;;;;;9.20;5.85;;;;;;;;;;5003295;28;20241;-69
2022/05/03 09:32:32;;;;;;;8.80;5.70;;;;;;;;;;4999603;28;20033;-69
2022/05/03 09:34:58;;;;;;;12.85;5.80;;;;;;;;;;5003421;28;20029;-69
2022/05/03 09:37:36;;;;;;;8.10;5.50;;;;;;;;;;4982720;28;20022;-69
2022/05/03 09:40:02;;;;;;;7.90;5.72;;;;;;;;;;5002939;28;20423;-69
2022/05/03 09:42:28;;;;;;;10.55;5.50;;;;;;;;;;5007179;28;20481;-69
2022/05/03 09:45:02;;;;;;;12.10;5.50;;;;;;;;;;5003645;28;20021;-69
2022/05/03 09:47:28;;;;;;;16.02;7.15;;;;;;;;;;5001025;28;20033;-69
2022/05/03 09:49:53;;;;;;;12.18;6.15;;;;;;;;;;5006851;28;20109;-69
2022/05/03 09:52:27;;;;;;;11.07;6.05;;;;;;;;;;5005783;28;20113;-68
2022/05/03 09:54:53;;;;;;;11.00;6.32;;;;;;;;;;5008822;28;20032;-69
2022/05/03 09:57:22;;;;;;;16.65;6.65;;;;;;;;;;5001696;28;20376;-70
2022/05/03 09:59:51;;;;;;;8.75;7.00;;;;;;;;;;5000489;28;20035;-69
2022/05/03 10:02:17;;;;;;;9.48;5.88;;;;;;;;;;5005361;28;20030;-69
2022/05/03 10:04:46;;;;;;;6.97;5.53;;;;;;;;;;5006028;28;20032;-69
2022/05/03 10:07:12;;;;;;;13.20;7.05;;;;;;;;;;5008777;28;20440;-69
2022/05/03 10:09:39;;;;;;;9.60;5.82;;;;;;;;;;5003484;28;20034;-69
2022/05/03 10:12:04;;;;;;;9.70;5.70;;;;;;;;;;5014275;28;20030;-70
2022/05/03 10:14:29;;;;;;;11.90;5.75;;;;;;;;;;5005952;28;20032;-69
2022/05/03 10:22:23;;;;;;;;;;;;;;;;;;5004366;28;20153;-72
2022/05/03 10:24:51;;;;;;;7.70;5.38;;;;;;;;;;5001798;28;20012;-72
2022/05/03 10:27:21;;;;;;;10.15;6.07;;;;;;;;;;5015945;28;20025;-71
2022/05/03 10:30:06;;;;;;;12.50;6.40;;;;;;;;;;4988931;28;20041;-72
2022/05/03 10:32:32;;;;;;;9.55;5.78;;;;;;;;;;5005124;28;20038;-71
2022/05/03 10:34:59;;;;;;;10.88;7.03;;;;;;;;;;4996754;28;20014;-72
2022/05/03 10:37:34;;;;;;;13.05;7.75;;;;;;;;;;5011665;28;20482;-72
2022/05/03 10:40:06;;;;;;;10.35;7.60;;;;;;;;;;5009552;28;20034;-72
2022/05/03 10:42:31;;;;;;;9.05;6.40;;;;;;;;;;5009584;28;20033;-72
2022/05/03 10:44:57;;;;;;;9.17;5.07;;;;;;;;;;5007344;28;20022;-72
2022/05/03 10:47:42;;;;;;;8.43;6.17;;;;;;;;;;5012331;28;20068;-72
2022/05/03 10:50:11;;;;;;;7.07;5.65;;;;;;;;;;5011676;28;20133;-72
2022/05/03 10:52:36;;;;;;;6.72;5.53;;;;;;;;;;4989934;28;20036;-72
2022/05/03 10:55:07;;;;;;;8.47;5.50;;;;;;;;;;4995705;28;20026;-72
2022/05/03 10:57:52;;;;;;;8.30;5.43;;;;;;;;;;5006773;28;20026;-72
2022/05/03 11:00:39;;;;;;;7.28;5.93;;;;;;;;;;5008393;28;20034;-72
2022/05/03 11:03:20;;;;;;;8.90;7.05;;;;;;;;;;5011732;28;20034;-72
2022/05/03 11:06:05;;;;;;;12.73;7.32;;;;;;;;;;4986398;28;20072;-72
2022/05/03 11:08:30;;;;;;;10.82;7.72;;;;;;;;;;5010841;28;20349;-72
2022/05/03 11:10:56;;;;;;;11.07;7.25;;;;;;;;;;4994020;28;20033;-72
2022/05/03 11:13:40;;;;;;;9.07;6.70;;;;;;;;;;5005401;28;20068;-72
2022/05/03 11:16:22;;;;;;;11.68;6.55;;;;;;;;;;4988177;28;20357;-73
2022/05/03 11:18:47;;;;;;;11.75;7.40;;;;;;;;;;5012595;28;20454;-72
2022/05/03 11:21:13;;;;;;;12.80;8.23;;;;;;;;;;4994480;28;20124;-72
2022/05/03 11:23:46;;;;;;;10.23;7.45;;;;;;;;;;5013212;28;20025;-72
2022/05/03 11:26:11;;;;;;;10.85;7.53;;;;;;;;;;4991685;28;20470;-72
2022/05/03 11:28:36;;;;;;;11.33;7.60;;;;;;;;;;5000100;28;20044;-72
2022/05/03 11:31:01;;;;;;;11.73;7.00;;;;;;;;;;5009622;28;20026;-71
2022/05/03 11:33:26;;;;;;;12.03;7.73;;;;;;;;;;5016252;28;20029;-72
2022/05/03 11:35:54;;;;;;;12.55;8.40;;;;;;;;;;5007386;28;20160;-73
2022/05/03 11:38:19;;;;;;;11.77;7.75;;;;;;;;;;5007243;28;20489;-72
2022/05/03 11:40:45;;;;;;;12.23;8.77;;;;;;;;;;5007847;28;20073;-72
2022/05/03 11:43:12;;;;;;;16.70;9.02;;;;;;;;;;4997405;28;20033;-73
2022/05/03 11:45:38;;;;;;;13.82;8.45;;;;;;;;;;5009299;28;20022;-72
2022/05/03 11:48:03;;;;;;;11.95;8.48;;;;;;;;;;5008345;28;20029;-72
2022/05/03 11:55:59;;;;;;;14.77;9.30;;;;;;;;;;5005253;28;20164;-71
2022/05/03 11:58:25;;;;;;;12.75;9.00;;;;;;;;;;5012201;28;20409;-72
2022/05/03 12:00:50;;;;;;;14.23;10.45;;;;;;;;;;5014507;28;20022;-71
2022/05/03 12:03:15;;;;;;;12.60;8.93;;;;;;;;;;5009734;28;20532;-72
2022/05/03 12:05:55;;;;;;;14.57;9.50;;;;;;;;;;5005990;28;20824;-72
2022/05/03 12:08:22;;;;;;;13.73;9.52;;;;;;;;;;5005876;28;20034;-72
2022/05/03 12:10:48;;;;;;;17.83;10.57;;;;;;;;;;4997157;28;20029;-72
2022/05/03 12:13:24;;;;;;;17.52;10.05;;;;;;;;;;5005617;28;20064;-72
2022/05/03 12:15:49;;;;;;;18.13;10.82;;;;;;;;;;4999443;28;20130;-71
2022/05/03 12:18:19;;;;;;;15.95;9.75;;;;;;;;;;5010842;28;20121;-71
2022/05/03 12:20:47;;;;;;;15.80;10.07;;;;;;;;;;5004299;28;20423;-72
2022/05/03 12:23:14;;;;;;;16.35;10.10;;;;;;;;;;5004942;28;20421;-72
2022/05/03 12:25:43;;;;;;;15.45;10.13;;;;;;;;;;5003781;28;20065;-71
2022/05/03 12:28:08;;;;;;;13.05;8.77;;;;;;;;;;5005529;28;20047;-72
2022/05/03 12:30:34;;;;;;;13.57;9.60;;;;;;;;;;5007841;28;20016;-71
2022/05/03 12:33:06;;;;;;;17.45;10.98;;;;;;;;;;5006105;28;20136;-71
2022/05/03 12:35:32;;;;;;;14.13;10.80;;;;;;;;;;5000447;28;21898;-72
2022/05/03 12:37:58;;;;;;;16.13;11.25;;;;;;;;;;5010721;28;20037;-72
2022/05/03 12:40:25;;;;;;;18.75;12.10;;;;;;;;;;5013031;28;20025;-72
2022/05/03 12:42:50;;;;;;;16.10;10.63;;;;;;;;;;5004976;28;20334;-72
2022/05/03 12:45:15;;;;;;;15.53;10.00;;;;;;;;;;5002067;28;20032;-72
2022/05/03 12:47:40;;;;;;;14.48;9.68;;;;;;;;;;5004707;28;20033;-72
2022/05/03 12:50:05;;;;;;;13.23;9.50;;;;;;;;;;5008182;28;20029;-72
2022/05/03 12:52:31;;;;;;;17.38;11.32;;;;;;;;;;5005519;28;20022;-72
2022/05/03 12:54:56;;;;;;;16.17;11.03;;;;;;;;;;5004727;28;20408;-72
2022/05/03 13:00:05;;;;;;;45.72;12.73;;;;;;;;;;5008396;28;20395;-72
2022/05/03 13:02:31;;;;;;;15.00;9.10;;;;;;;;;;5008596;28;20037;-72
2022/05/03 13:04:56;;;;;;;15.10;9.55;;;;;;;;;;5011725;28;20057;-72
2022/05/03 13:07:21;;;;;;;14.87;9.57;;;;;;;;;;5006867;28;20038;-72
2022/05/03 13:09:46;;;;;;;14.67;10.23;;;;;;;;;;5024031;28;20032;-72
2022/05/03 13:12:12;;;;;;;12.65;9.52;;;;;;;;;;5007945;28;20460;-72
2022/05/03 13:14:37;;;;;;;13.40;9.40;;;;;;;;;;5005445;28;20388;-72
2022/05/03 13:17:03;;;;;;;16.50;10.15;;;;;;;;;;4998973;28;20469;-72
2022/05/03 13:19:30;;;;;;;14.65;9.45;;;;;;;;;;5011744;28;20040;-72
2022/05/03 13:21:56;;;;;;;12.98;8.75;;;;;;;;;;5004323;28;20026;-72
2022/05/03 13:24:21;;;;;;;12.48;7.75;;;;;;;;;;5012046;28;20029;-72
2022/05/03 13:26:47;;;;;;;13.27;8.65;;;;;;;;;;5003358;28;20022;-72
2022/05/03 13:29:15;;;;;;;14.55;8.55;;;;;;;;;;5005010;28;20037;-72
2022/05/03 13:31:40;;;;;;;13.65;8.20;;;;;;;;;;5002709;28;20500;-72
2022/05/03 13:34:06;;;;;;;12.85;7.55;;;;;;;;;;4988254;28;20112;-72
2022/05/03 13:41:59;;;;;;;12.35;7.78;;;;;;;;;;5006590;28;20500;-72
2022/05/03 13:44:27;;;;;;;12.18;8.82;;;;;;;;;;4999572;28;20117;-72
2022/05/03 13:46:53;;;;;;;30.90;15.13;;;;;;;;;;4996730;28;20425;-71
2022/05/03 13:49:19;;;;;;;27.65;14.13;;;;;;;;;;5001961;28;20151;-71
2022/05/03 13:51:44;;;;;;;36.10;17.25;;;;;;;;;;5008737;28;20473;-72
2022/05/03 13:54:09;;;;;;;33.90;16.83;;;;;;;;;;4998035;28;20034;-72
2022/05/03 13:56:35;;;;;;;38.07;19.17;;;;;;;;;;5003392;28;20378;-72
2022/05/03 13:59:00;;;;;;;38.35;19.00;;;;;;;;;;5000130;28;20072;-72
2022/05/03 14:01:25;;;;;;;43.20;18.80;;;;;;;;;;5017264;28;20033;-72
2022/05/03 14:03:51;;;;;;;37.55;18.98;;;;;;;;;;5011756;28;20535;-72
2022/05/03 14:06:17;;;;;;;39.67;18.30;;;;;;;;;;5003305;28;20030;-72
2022/05/03 14:08:42;;;;;;;37.75;17.65;;;;;;;;;;5006805;28;20041;-72
2022/05/03 14:11:08;;;;;;;40.97;18.23;;;;;;;;;;5008153;28;20022;-72
2022/05/03 14:13:33;;;;;;;41.42;19.67;;;;;;;;;;5008176;28;20137;-73
2022/05/03 14:15:58;;;;;;;38.97;17.70;;;;;;;;;;5003301;28;20069;-71
2022/05/03 14:18:23;;;;;;;48.53;21.02;;;;;;;;;;5006899;28;20049;-72
2022/05/03 14:20:49;;;;;;;43.03;19.33;;;;;;;;;;5010123;28;20103;-72
2022/05/03 14:23:14;;;;;;;42.83;19.05;;;;;;;;;;5008047;28;20034;-71
2022/05/03 14:25:40;;;;;;;39.67;18.08;;;;;;;;;;5006420;28;20032;-72
2022/05/03 14:28:05;;;;;;;49.55;19.73;;;;;;;;;;4992087;28;20096;-72
2022/05/03 14:30:31;;;;;;;42.65;19.77;;;;;;;;;;5007776;28;20539;-71
2022/05/03 14:32:56;;;;;;;48.50;20.67;;;;;;;;;;5004862;28;20026;-72
2022/05/03 14:35:21;;;;;;;47.33;19.33;;;;;;;;;;5007720;28;20451;-72
2022/05/03 14:37:46;;;;;;;49.53;19.53;;;;;;;;;;5003440;28;20357;-72
2022/05/03 14:40:11;;;;;;;43.25;19.13;;;;;;;;;;5008835;28;20030;-71
2022/05/03 14:42:37;;;;;;;47.38;21.52;;;;;;;;;;4993425;28;20703;-72
2022/05/03 14:45:03;;;;;;;46.30;20.30;;;;;;;;;;5006244;28;20065;-71
2022/05/03 14:47:29;;;;;;;51.20;19.90;;;;;;;;;;5006883;28;20026;-72
2022/05/03 14:49:54;;;;;;;43.92;19.80;;;;;;;;;;5009816;28;20030;-71
2022/05/03 14:52:19;;;;;;;48.35;21.15;;;;;;;;;;5008285;28;20530;-72
2022/05/03 14:54:45;;;;;;;45.67;19.70;;;;;;;;;;5000234;28;20559;-72
2022/05/03 15:05:19;;;;;;;45.20;20.38;;;;;;;;;;5008493;28;20033;-72
2022/05/03 15:07:44;;;;;;;47.67;20.42;;;;;;;;;;5000589;28;20132;-72
2022/05/03 15:10:10;;;;;;;42.80;18.98;;;;;;;;;;5005877;28;20033;-72
2022/05/03 15:12:35;;;;;;;50.75;20.60;;;;;;;;;;4990181;28;20028;-72
2022/05/03 15:15:00;;;;;;;46.37;20.23;;;;;;;;;;5005429;28;20038;-72
2022/05/03 15:17:25;;;;;;;53.43;22.13;;;;;;;;;;5002852;28;20271;-72
2022/05/03 15:19:50;;;;;;;40.75;18.67;;;;;;;;;;5006181;28;20873;-73
2022/05/03 15:22:15;;;;;;;45.38;19.40;;;;;;;;;;5008304;28;20041;-72
2022/05/03 15:24:42;;;;;;;55.17;20.63;;;;;;;;;;5004480;28;20045;-72
2022/05/03 15:27:08;;;;;;;46.75;21.15;;;;;;;;;;4994439;28;20030;-72